Terminal Aerodrome Forecast
Issued by NWS

Home | Current Version | Previous Version | Text Only | Print | Product List | Glossary On
Versions: 1 2 3 4 5 6 7 8 9 10 11 12 13 14 15 16
000
FTUS43 KIND 040520
TAFBMG
TAF
KBMG 040520Z 0406/0506 00000KT P6SM OVC150
     FM041200 09004KT P6SM VCSH OVC045
     FM041700 12006KT P6SM VCSH OVC025
     FM041900 13005KT 3SM -RA OVC010
     FM042100 VRB03KT 1 1/2SM -RA OVC003
     FM050000 VRB03KT P6SM OVC003
     FM050200 VRB03KT P6SM OVC008
      AMD LTD TO CLD VIS AND WIND TIL 041400=

USA.gov is the U.S. government's official web portal to all federal, state and local government web resources and services.